sensor_id;sensor_type;location;lat;lon;timestamp;pressure;altitude;pressure_sealevel;temperature;humidity
35435;BME280;21556;55.782;37.528;2023-03-31T00:00:52;99086.25;;;3.72;100.00
35435;BME280;21556;55.782;37.528;2023-03-31T00:03:18;99086.88;;;3.90;100.00
35435;BME280;21556;55.782;37.528;2023-03-31T00:05:48;99098.75;;;3.58;100.00
35435;BME280;21556;55.782;37.528;2023-03-31T00:08:18;99098.47;;;3.50;100.00
35435;BME280;21556;55.782;37.528;2023-03-31T00:10:44;99091.66;;;3.52;100.00
35435;BME280;21556;55.782;37.528;2023-03-31T00:13:11;99095.56;;;3.41;100.00
35435;BME280;21556;55.782;37.528;2023-03-31T00:15:37;99087.53;;;3.59;100.00
35435;BME280;21556;55.782;37.528;2023-03-31T00:18:06;99083.19;;;3.58;100.00
35435;BME280;21556;55.782;37.528;2023-03-31T00:20:32;99097.63;;;3.26;100.00
35435;BME280;21556;55.782;37.528;2023-03-31T00:23:02;99087.72;;;3.16;100.00
35435;BME280;21556;55.782;37.528;2023-03-31T00:25:31;99098.53;;;2.80;100.00
35435;BME280;21556;55.782;37.528;2023-03-31T00:27:58;99104.13;;;3.14;100.00
35435;BME280;21556;55.782;37.528;2023-03-31T00:30:26;99098.09;;;2.92;100.00
35435;BME280;21556;55.782;37.528;2023-03-31T00:32:51;99096.78;;;3.03;100.00
35435;BME280;21556;55.782;37.528;2023-03-31T00:35:19;99098.44;;;3.01;100.00
35435;BME280;21556;55.782;37.528;2023-03-31T00:37:44;99092.56;;;3.54;100.00
35435;BME280;21556;55.782;37.528;2023-03-31T00:40:11;99083.75;;;3.49;100.00
35435;BME280;21556;55.782;37.528;2023-03-31T00:42:38;99084.63;;;3.50;100.00
35435;BME280;21556;55.782;37.528;2023-03-31T00:47:39;99093.00;;;3.17;100.00
35435;BME280;21556;55.782;37.528;2023-03-31T00:50:23;99084.66;;;3.02;100.00
35435;BME280;21556;55.782;37.528;2023-03-31T00:52:54;99082.94;;;3.02;100.00
35435;BME280;21556;55.782;37.528;2023-03-31T00:55:22;99082.34;;;3.09;100.00
35435;BME280;21556;55.782;37.528;2023-03-31T00:57:50;99078.69;;;3.04;100.00
35435;BME280;21556;55.782;37.528;2023-03-31T01:00:18;99087.41;;;2.37;100.00
35435;BME280;21556;55.782;37.528;2023-03-31T01:02:48;99088.28;;;3.07;100.00
35435;BME280;21556;55.782;37.528;2023-03-31T01:05:25;99087.06;;;2.97;100.00
35435;BME280;21556;55.782;37.528;2023-03-31T01:07:55;99090.28;;;2.68;100.00
35435;BME280;21556;55.782;37.528;2023-03-31T01:10:22;99078.72;;;2.58;100.00
35435;BME280;21556;55.782;37.528;2023-03-31T01:12:49;99073.50;;;3.04;100.00
35435;BME280;21556;55.782;37.528;2023-03-31T01:15:19;99078.41;;;2.73;100.00
35435;BME280;21556;55.782;37.528;2023-03-31T01:17:44;99064.91;;;2.81;100.00
35435;BME280;21556;55.782;37.528;2023-03-31T01:28:39;99047.75;;;2.85;100.00
35435;BME280;21556;55.782;37.528;2023-03-31T01:33:59;99042.06;;;2.71;100.00
35435;BME280;21556;55.782;37.528;2023-03-31T01:44:42;99048.38;;;2.78;100.00
35435;BME280;21556;55.782;37.528;2023-03-31T01:47:18;99045.41;;;2.69;100.00
35435;BME280;21556;55.782;37.528;2023-03-31T01:50:07;99044.72;;;3.21;100.00
35435;BME280;21556;55.782;37.528;2023-03-31T01:57:35;99038.44;;;2.90;100.00
35435;BME280;21556;55.782;37.528;2023-03-31T02:00:06;99034.25;;;2.70;100.00
35435;BME280;21556;55.782;37.528;2023-03-31T02:03:00;99035.81;;;3.12;100.00
35435;BME280;21556;55.782;37.528;2023-03-31T02:05:27;99032.91;;;2.57;100.00
35435;BME280;21556;55.782;37.528;2023-03-31T02:08:00;99034.31;;;2.49;100.00
35435;BME280;21556;55.782;37.528;2023-03-31T02:10:28;99030.84;;;2.71;100.00
35435;BME280;21556;55.782;37.528;2023-03-31T02:12:57;99025.09;;;3.03;100.00
35435;BME280;21556;55.782;37.528;2023-03-31T02:15:29;99018.59;;;3.14;100.00
35435;BME280;21556;55.782;37.528;2023-03-31T02:18:00;99022.31;;;3.23;100.00
35435;BME280;21556;55.782;37.528;2023-03-31T02:20:30;99020.78;;;3.04;100.00
35435;BME280;21556;55.782;37.528;2023-03-31T02:22:56;99015.59;;;3.28;100.00
35435;BME280;21556;55.782;37.528;2023-03-31T02:25:23;99024.41;;;2.83;100.00
35435;BME280;21556;55.782;37.528;2023-03-31T02:28:00;99024.84;;;3.20;100.00
35435;BME280;21556;55.782;37.528;2023-03-31T02:30:33;99028.25;;;2.71;100.00
35435;BME280;21556;55.782;37.528;2023-03-31T02:33:01;99029.66;;;2.86;100.00
35435;BME280;21556;55.782;37.528;2023-03-31T02:35:29;99023.16;;;3.22;100.00
35435;BME280;21556;55.782;37.528;2023-03-31T02:37:56;99023.94;;;2.71;100.00
35435;BME280;21556;55.782;37.528;2023-03-31T02:40:23;99037.19;;;2.56;100.00
35435;BME280;21556;55.782;37.528;2023-03-31T02:42:52;99034.09;;;3.13;100.00
35435;BME280;21556;55.782;37.528;2023-03-31T02:48:02;99032.06;;;2.80;100.00
35435;BME280;21556;55.782;37.528;2023-03-31T02:50:30;99036.19;;;2.53;100.00
35435;BME280;21556;55.782;37.528;2023-03-31T02:53:05;99029.38;;;2.32;100.00
35435;BME280;21556;55.782;37.528;2023-03-31T02:55:47;99030.31;;;2.57;100.00
35435;BME280;21556;55.782;37.528;2023-03-31T03:03:28;99031.72;;;2.71;100.00
35435;BME280;21556;55.782;37.528;2023-03-31T03:06:07;99028.63;;;2.81;100.00
35435;BME280;21556;55.782;37.528;2023-03-31T03:11:26;99027.66;;;3.02;100.00
35435;BME280;21556;55.782;37.528;2023-03-31T03:16:42;99031.50;;;2.89;100.00
35435;BME280;21556;55.782;37.528;2023-03-31T03:19:16;99036.31;;;2.56;100.00
35435;BME280;21556;55.782;37.528;2023-03-31T03:21:43;99044.03;;;2.32;100.00
35435;BME280;21556;55.782;37.528;2023-03-31T03:24:11;99046.59;;;2.09;100.00
35435;BME280;21556;55.782;37.528;2023-03-31T03:26:38;99042.13;;;2.50;100.00
35435;BME280;21556;55.782;37.528;2023-03-31T03:29:04;99035.16;;;2.25;100.00
35435;BME280;21556;55.782;37.528;2023-03-31T03:31:30;99030.34;;;2.81;100.00
35435;BME280;21556;55.782;37.528;2023-03-31T03:34:02;99021.38;;;2.49;100.00
35435;BME280;21556;55.782;37.528;2023-03-31T03:36:29;99010.97;;;2.47;100.00
35435;BME280;21556;55.782;37.528;2023-03-31T03:38:57;99007.06;;;2.36;100.00
35435;BME280;21556;55.782;37.528;2023-03-31T03:41:23;99004.44;;;2.34;100.00
35435;BME280;21556;55.782;37.528;2023-03-31T03:43:50;99009.75;;;2.15;100.00
35435;BME280;21556;55.782;37.528;2023-03-31T03:46:16;99010.09;;;2.24;100.00
35435;BME280;21556;55.782;37.528;2023-03-31T03:48:41;99003.69;;;2.37;100.00
35435;BME280;21556;55.782;37.528;2023-03-31T03:51:07;98997.44;;;2.78;100.00
35435;BME280;21556;55.782;37.528;2023-03-31T03:53:33;98999.97;;;2.77;100.00
35435;BME280;21556;55.782;37.528;2023-03-31T03:56:06;98996.72;;;2.58;100.00
35435;BME280;21556;55.782;37.528;2023-03-31T03:58:31;98986.88;;;2.26;100.00
35435;BME280;21556;55.782;37.528;2023-03-31T04:00:57;98986.75;;;2.00;100.00
35435;BME280;21556;55.782;37.528;2023-03-31T04:03:23;98977.69;;;2.34;100.00
35435;BME280;21556;55.782;37.528;2023-03-31T04:05:49;98977.00;;;2.39;100.00
35435;BME280;21556;55.782;37.528;2023-03-31T04:08:15;98977.41;;;2.50;100.00
35435;BME280;21556;55.782;37.528;2023-03-31T04:10:45;98969.63;;;2.50;100.00
35435;BME280;21556;55.782;37.528;2023-03-31T04:13:17;98964.94;;;2.62;100.00
35435;BME280;21556;55.782;37.528;2023-03-31T04:15:43;98974.44;;;2.17;100.00
35435;BME280;21556;55.782;37.528;2023-03-31T04:18:09;98966.28;;;2.53;100.00
35435;BME280;21556;55.782;37.528;2023-03-31T04:20:44;98969.94;;;2.11;100.00
35435;BME280;21556;55.782;37.528;2023-03-31T04:23:10;98959.19;;;2.71;100.00
35435;BME280;21556;55.782;37.528;2023-03-31T04:25:40;98953.94;;;2.22;100.00
35435;BME280;21556;55.782;37.528;2023-03-31T04:28:11;98962.56;;;2.22;100.00
35435;BME280;21556;55.782;37.528;2023-03-31T04:30:41;98962.97;;;2.57;100.00
35435;BME280;21556;55.782;37.528;2023-03-31T04:33:12;98952.72;;;2.36;100.00
35435;BME280;21556;55.782;37.528;2023-03-31T04:35:42;98953.56;;;2.59;100.00
35435;BME280;21556;55.782;37.528;2023-03-31T04:38:15;98950.75;;;2.77;100.00
35435;BME280;21556;55.782;37.528;2023-03-31T04:40:46;98945.03;;;3.11;100.00
35435;BME280;21556;55.782;37.528;2023-03-31T04:43:15;98958.06;;;2.64;100.00
35435;BME280;21556;55.782;37.528;2023-03-31T04:45:41;98944.34;;;2.91;100.00
35435;BME280;21556;55.782;37.528;2023-03-31T04:48:07;98951.09;;;2.62;100.00
35435;BME280;21556;55.782;37.528;2023-03-31T04:50:38;98929.19;;;2.78;100.00
35435;BME280;21556;55.782;37.528;2023-03-31T04:53:06;98949.50;;;2.65;100.00
35435;BME280;21556;55.782;37.528;2023-03-31T04:55:34;98939.94;;;2.64;100.00
35435;BME280;21556;55.782;37.528;2023-03-31T04:58:00;98929.09;;;2.75;100.00
35435;BME280;21556;55.782;37.528;2023-03-31T05:00:26;98922.69;;;2.89;100.00
35435;BME280;21556;55.782;37.528;2023-03-31T05:02:55;98935.28;;;2.54;100.00
35435;BME280;21556;55.782;37.528;2023-03-31T05:05:23;98926.63;;;3.03;100.00
35435;BME280;21556;55.782;37.528;2023-03-31T05:07:51;98931.44;;;3.18;100.00
35435;BME280;21556;55.782;37.528;2023-03-31T05:10:17;98936.41;;;2.86;100.00
35435;BME280;21556;55.782;37.528;2023-03-31T05:12:45;98950.22;;;2.61;100.00
35435;BME280;21556;55.782;37.528;2023-03-31T05:15:12;98941.81;;;2.69;100.00
35435;BME280;21556;55.782;37.528;2023-03-31T05:17:43;98936.97;;;2.78;100.00
35435;BME280;21556;55.782;37.528;2023-03-31T05:20:16;98944.84;;;2.81;100.00
35435;BME280;21556;55.782;37.528;2023-03-31T05:22:41;98956.38;;;2.65;100.00
35435;BME280;21556;55.782;37.528;2023-03-31T05:25:11;98950.16;;;2.60;100.00
35435;BME280;21556;55.782;37.528;2023-03-31T05:27:46;98944.34;;;2.19;100.00
35435;BME280;21556;55.782;37.528;2023-03-31T05:30:12;98946.28;;;2.49;100.00
35435;BME280;21556;55.782;37.528;2023-03-31T05:32:39;98954.44;;;2.35;100.00
35435;BME280;21556;55.782;37.528;2023-03-31T05:35:08;98954.66;;;2.41;100.00
35435;BME280;21556;55.782;37.528;2023-03-31T05:37:34;98951.44;;;2.47;100.00
35435;BME280;21556;55.782;37.528;2023-03-31T05:40:03;98939.19;;;2.67;100.00
35435;BME280;21556;55.782;37.528;2023-03-31T05:42:33;98944.63;;;2.75;100.00
35435;BME280;21556;55.782;37.528;2023-03-31T05:45:29;98936.69;;;2.22;100.00
35435;BME280;21556;55.782;37.528;2023-03-31T05:47:55;98933.38;;;2.98;100.00
35435;BME280;21556;55.782;37.528;2023-03-31T05:50:21;98935.38;;;2.81;100.00
35435;BME280;21556;55.782;37.528;2023-03-31T05:52:47;98949.19;;;2.82;100.00
35435;BME280;21556;55.782;37.528;2023-03-31T05:55:14;98940.59;;;3.08;100.00
35435;BME280;21556;55.782;37.528;2023-03-31T05:57:40;98939.75;;;2.58;100.00
35435;BME280;21556;55.782;37.528;2023-03-31T06:00:07;98924.13;;;2.81;100.00
35435;BME280;21556;55.782;37.528;2023-03-31T06:02:35;98918.56;;;2.46;100.00
35435;BME280;21556;55.782;37.528;2023-03-31T06:05:02;98910.78;;;2.94;100.00
35435;BME280;21556;55.782;37.528;2023-03-31T06:07:30;98902.88;;;2.65;100.00
35435;BME280;21556;55.782;37.528;2023-03-31T06:09:55;98906.91;;;2.83;100.00
35435;BME280;21556;55.782;37.528;2023-03-31T06:12:21;98909.63;;;3.11;100.00
35435;BME280;21556;55.782;37.528;2023-03-31T06:14:47;98910.25;;;3.04;100.00
35435;BME280;21556;55.782;37.528;2023-03-31T06:17:13;98913.41;;;3.21;100.00
35435;BME280;21556;55.782;37.528;2023-03-31T06:19:39;98906.72;;;3.02;100.00
35435;BME280;21556;55.782;37.528;2023-03-31T06:22:06;98906.72;;;3.28;100.00
35435;BME280;21556;55.782;37.528;2023-03-31T06:24:32;98906.72;;;3.28;100.00
35435;BME280;21556;55.782;37.528;2023-03-31T06:26:59;98918.22;;;2.85;100.00
35435;BME280;21556;55.782;37.528;2023-03-31T06:29:26;98921.16;;;3.20;100.00
35435;BME280;21556;55.782;37.528;2023-03-31T06:31:51;98918.78;;;3.54;100.00
35435;BME280;21556;55.782;37.528;2023-03-31T06:34:18;98915.03;;;2.92;100.00
35435;BME280;21556;55.782;37.528;2023-03-31T06:36:44;98921.22;;;3.23;100.00
35435;BME280;21556;55.782;37.528;2023-03-31T06:39:11;98921.88;;;3.43;100.00
35435;BME280;21556;55.782;37.528;2023-03-31T06:41:36;98922.31;;;2.78;100.00
35435;BME280;21556;55.782;37.528;2023-03-31T06:44:03;98919.22;;;3.14;100.00
35435;BME280;21556;55.782;37.528;2023-03-31T06:46:32;98905.91;;;3.03;100.00
35435;BME280;21556;55.782;37.528;2023-03-31T06:48:58;98902.19;;;3.22;100.00
35435;BME280;21556;55.782;37.528;2023-03-31T06:51:25;98914.94;;;3.42;100.00
35435;BME280;21556;55.782;37.528;2023-03-31T06:53:55;98897.16;;;3.54;100.00
35435;BME280;21556;55.782;37.528;2023-03-31T06:56:38;98897.13;;;3.25;100.00
35435;BME280;21556;55.782;37.528;2023-03-31T06:59:05;98896.22;;;3.52;100.00
35435;BME280;21556;55.782;37.528;2023-03-31T07:01:30;98894.78;;;3.33;100.00
35435;BME280;21556;55.782;37.528;2023-03-31T07:03:56;98904.59;;;3.43;100.00
35435;BME280;21556;55.782;37.528;2023-03-31T07:06:33;98904.00;;;3.52;100.00
35435;BME280;21556;55.782;37.528;2023-03-31T07:09:12;98904.50;;;3.40;100.00
35435;BME280;21556;55.782;37.528;2023-03-31T07:11:39;98905.00;;;3.55;100.00
35435;BME280;21556;55.782;37.528;2023-03-31T07:14:08;98897.59;;;3.41;100.00
35435;BME280;21556;55.782;37.528;2023-03-31T07:16:34;98892.00;;;3.27;100.00
35435;BME280;21556;55.782;37.528;2023-03-31T07:19:03;98897.84;;;3.48;100.00
35435;BME280;21556;55.782;37.528;2023-03-31T07:21:33;98888.31;;;3.47;100.00
35435;BME280;21556;55.782;37.528;2023-03-31T07:24:03;98895.59;;;3.32;100.00
35435;BME280;21556;55.782;37.528;2023-03-31T07:26:29;98895.50;;;3.29;100.00
35435;BME280;21556;55.782;37.528;2023-03-31T07:28:55;98891.44;;;3.37;100.00
35435;BME280;21556;55.782;37.528;2023-03-31T07:31:21;98890.13;;;3.50;100.00
35435;BME280;21556;55.782;37.528;2023-03-31T07:33:47;98891.81;;;3.76;100.00
35435;BME280;21556;55.782;37.528;2023-03-31T07:36:13;98888.22;;;3.71;100.00
35435;BME280;21556;55.782;37.528;2023-03-31T07:38:40;98885.41;;;3.65;100.00
35435;BME280;21556;55.782;37.528;2023-03-31T07:41:12;98882.50;;;3.83;100.00
35435;BME280;21556;55.782;37.528;2023-03-31T07:43:39;98886.53;;;4.02;100.00
35435;BME280;21556;55.782;37.528;2023-03-31T07:46:12;98883.25;;;3.79;100.00
35435;BME280;21556;55.782;37.528;2023-03-31T07:48:41;98891.53;;;3.40;100.00
35435;BME280;21556;55.782;37.528;2023-03-31T07:54:00;98886.84;;;3.28;100.00
35435;BME280;21556;55.782;37.528;2023-03-31T07:56:26;98886.19;;;3.62;100.00
35435;BME280;21556;55.782;37.528;2023-03-31T07:58:52;98896.03;;;3.73;100.00
35435;BME280;21556;55.782;37.528;2023-03-31T08:01:19;98887.31;;;3.99;100.00
35435;BME280;21556;55.782;37.528;2023-03-31T08:03:46;98888.25;;;4.31;100.00
35435;BME280;21556;55.782;37.528;2023-03-31T08:06:19;98882.78;;;3.92;100.00
35435;BME280;21556;55.782;37.528;2023-03-31T08:08:46;98885.66;;;4.01;100.00
35435;BME280;21556;55.782;37.528;2023-03-31T08:11:11;98861.66;;;4.10;100.00
35435;BME280;21556;55.782;37.528;2023-03-31T08:13:38;98864.44;;;3.86;100.00
35435;BME280;21556;55.782;37.528;2023-03-31T08:16:03;98863.22;;;4.03;100.00
35435;BME280;21556;55.782;37.528;2023-03-31T08:18:29;98853.84;;;4.08;100.00
35435;BME280;21556;55.782;37.528;2023-03-31T08:20:55;98849.81;;;4.18;100.00
35435;BME280;21556;55.782;37.528;2023-03-31T08:23:26;98851.53;;;4.18;100.00
35435;BME280;21556;55.782;37.528;2023-03-31T08:25:51;98858.03;;;4.03;100.00
35435;BME280;21556;55.782;37.528;2023-03-31T08:28:17;98845.34;;;4.46;100.00
35435;BME280;21556;55.782;37.528;2023-03-31T08:30:43;98842.25;;;4.59;100.00
35435;BME280;21556;55.782;37.528;2023-03-31T08:33:11;98844.09;;;4.31;100.00
35435;BME280;21556;55.782;37.528;2023-03-31T08:35:40;98838.13;;;4.34;100.00
35435;BME280;21556;55.782;37.528;2023-03-31T08:38:07;98828.88;;;4.44;100.00
35435;BME280;21556;55.782;37.528;2023-03-31T08:40:33;98824.28;;;4.03;100.00
35435;BME280;21556;55.782;37.528;2023-03-31T08:43:07;98825.72;;;4.24;100.00
35435;BME280;21556;55.782;37.528;2023-03-31T08:45:45;98823.78;;;4.48;100.00
35435;BME280;21556;55.782;37.528;2023-03-31T08:48:20;98816.75;;;4.77;100.00
35435;BME280;21556;55.782;37.528;2023-03-31T08:50:51;98797.34;;;4.65;100.00
35435;BME280;21556;55.782;37.528;2023-03-31T08:53:28;98799.06;;;4.63;100.00
35435;BME280;21556;55.782;37.528;2023-03-31T08:55:57;98798.63;;;4.80;100.00
35435;BME280;21556;55.782;37.528;2023-03-31T08:58:34;98795.44;;;4.92;100.00
35435;BME280;21556;55.782;37.528;2023-03-31T09:06:36;98794.97;;;4.72;100.00
35435;BME280;21556;55.782;37.528;2023-03-31T09:09:05;98790.53;;;5.04;100.00
35435;BME280;21556;55.782;37.528;2023-03-31T09:12:08;98790.94;;;5.21;100.00
35435;BME280;21556;55.782;37.528;2023-03-31T09:14:46;98789.47;;;4.95;100.00
35435;BME280;21556;55.782;37.528;2023-03-31T09:17:17;98783.78;;;5.11;100.00
35435;BME280;21556;55.782;37.528;2023-03-31T09:19:51;98787.47;;;5.19;100.00
35435;BME280;21556;55.782;37.528;2023-03-31T09:22:23;98777.31;;;5.31;100.00
35435;BME280;21556;55.782;37.528;2023-03-31T09:27:16;98767.03;;;4.98;100.00
35435;BME280;21556;55.782;37.528;2023-03-31T09:29:56;98764.88;;;5.18;100.00
35435;BME280;21556;55.782;37.528;2023-03-31T09:32:25;98759.50;;;5.50;100.00
35435;BME280;21556;55.782;37.528;2023-03-31T09:34:55;98751.69;;;5.48;100.00
35435;BME280;21556;55.782;37.528;2023-03-31T09:37:24;98749.81;;;5.43;100.00
35435;BME280;21556;55.782;37.528;2023-03-31T09:39:52;98751.41;;;5.36;100.00
35435;BME280;21556;55.782;37.528;2023-03-31T09:42:25;98742.59;;;5.29;100.00
35435;BME280;21556;55.782;37.528;2023-03-31T09:45:16;98738.91;;;5.20;100.00
35435;BME280;21556;55.782;37.528;2023-03-31T09:48:22;98733.44;;;5.47;100.00
35435;BME280;21556;55.782;37.528;2023-03-31T09:51:03;98717.53;;;5.33;100.00
35435;BME280;21556;55.782;37.528;2023-03-31T09:54:06;98712.84;;;5.58;100.00
35435;BME280;21556;55.782;37.528;2023-03-31T09:59:16;98707.34;;;5.88;100.00
35435;BME280;21556;55.782;37.528;2023-03-31T10:01:43;98713.50;;;5.91;100.00
35435;BME280;21556;55.782;37.528;2023-03-31T10:04:14;98711.72;;;5.45;100.00
35435;BME280;21556;55.782;37.528;2023-03-31T10:06:49;98707.63;;;5.56;100.00
35435;BME280;21556;55.782;37.528;2023-03-31T10:09:19;98707.88;;;5.70;100.00
35435;BME280;21556;55.782;37.528;2023-03-31T10:14:27;98711.41;;;5.72;100.00
35435;BME280;21556;55.782;37.528;2023-03-31T10:16:58;98698.19;;;5.63;100.00
35435;BME280;21556;55.782;37.528;2023-03-31T10:19:27;98703.81;;;5.84;100.00
35435;BME280;21556;55.782;37.528;2023-03-31T10:22:00;98698.69;;;5.87;100.00
35435;BME280;21556;55.782;37.528;2023-03-31T10:24:35;98704.09;;;5.96;100.00
35435;BME280;21556;55.782;37.528;2023-03-31T10:27:01;98696.50;;;6.09;100.00
35435;BME280;21556;55.782;37.528;2023-03-31T10:29:31;98696.78;;;6.24;100.00
35435;BME280;21556;55.782;37.528;2023-03-31T10:32:03;98693.06;;;6.10;100.00
35435;BME280;21556;55.782;37.528;2023-03-31T10:34:39;98692.59;;;5.87;100.00
35435;BME280;21556;55.782;37.528;2023-03-31T10:40:25;98682.59;;;6.07;100.00
35435;BME280;21556;55.782;37.528;2023-03-31T10:43:15;98673.50;;;5.85;100.00
35435;BME280;21556;55.782;37.528;2023-03-31T10:45:49;98667.94;;;5.68;100.00
35435;BME280;21556;55.782;37.528;2023-03-31T10:48:17;98658.38;;;6.11;100.00
35435;BME280;21556;55.782;37.528;2023-03-31T10:50:44;98649.28;;;5.92;100.00
35435;BME280;21556;55.782;37.528;2023-03-31T10:53:12;98640.03;;;6.06;100.00
35435;BME280;21556;55.782;37.528;2023-03-31T10:55:51;98636.06;;;6.25;100.00
35435;BME280;21556;55.782;37.528;2023-03-31T10:58:25;98632.38;;;6.14;100.00
35435;BME280;21556;55.782;37.528;2023-03-31T11:09:10;98640.44;;;6.29;100.00
35435;BME280;21556;55.782;37.528;2023-03-31T11:11:52;98647.91;;;6.09;100.00
35435;BME280;21556;55.782;37.528;2023-03-31T11:20:34;98635.88;;;6.16;100.00
35435;BME280;21556;55.782;37.528;2023-03-31T11:25:57;98631.59;;;6.19;100.00
35435;BME280;21556;55.782;37.528;2023-03-31T11:31:04;98627.31;;;6.23;100.00
35435;BME280;21556;55.782;37.528;2023-03-31T11:34:12;98625.88;;;5.92;100.00
35435;BME280;21556;55.782;37.528;2023-03-31T11:39:19;98617.75;;;6.22;100.00
35435;BME280;21556;55.782;37.528;2023-03-31T11:41:50;98612.31;;;6.08;100.00
35435;BME280;21556;55.782;37.528;2023-03-31T11:44:19;98608.03;;;6.12;100.00
35435;BME280;21556;55.782;37.528;2023-03-31T11:46:54;98601.31;;;6.26;100.00
35435;BME280;21556;55.782;37.528;2023-03-31T11:49:28;98610.03;;;6.28;100.00
35435;BME280;21556;55.782;37.528;2023-03-31T11:51:58;98598.53;;;6.14;100.00
35435;BME280;21556;55.782;37.528;2023-03-31T11:54:28;98604.03;;;5.84;100.00
35435;BME280;21556;55.782;37.528;2023-03-31T11:56:55;98603.13;;;5.35;100.00
35435;BME280;21556;55.782;37.528;2023-03-31T11:59:26;98597.44;;;6.01;100.00
35435;BME280;21556;55.782;37.528;2023-03-31T12:01:58;98591.59;;;6.16;100.00
35435;BME280;21556;55.782;37.528;2023-03-31T12:04:37;98584.72;;;6.19;100.00
35435;BME280;21556;55.782;37.528;2023-03-31T12:12:21;98593.56;;;5.79;100.00
35435;BME280;21556;55.782;37.528;2023-03-31T12:14:50;98585.00;;;5.86;100.00
35435;BME280;21556;55.782;37.528;2023-03-31T12:17:26;98579.72;;;5.82;100.00
35435;BME280;21556;55.782;37.528;2023-03-31T12:19:58;98579.97;;;5.95;100.00
35435;BME280;21556;55.782;37.528;2023-03-31T12:22:34;98572.13;;;5.92;100.00
35435;BME280;21556;55.782;37.528;2023-03-31T12:25:03;98561.19;;;5.65;100.00
35435;BME280;21556;55.782;37.528;2023-03-31T12:32:21;98555.72;;;5.98;100.00
35435;BME280;21556;55.782;37.528;2023-03-31T12:34:58;98557.41;;;5.94;100.00
35435;BME280;21556;55.782;37.528;2023-03-31T12:37:46;98555.50;;;5.87;100.00
35435;BME280;21556;55.782;37.528;2023-03-31T12:42:58;98554.16;;;6.08;100.00
35435;BME280;21556;55.782;37.528;2023-03-31T12:45:31;98549.81;;;6.08;100.00
35435;BME280;21556;55.782;37.528;2023-03-31T12:56:00;98546.22;;;6.00;100.00
35435;BME280;21556;55.782;37.528;2023-03-31T12:58:34;98542.78;;;6.02;100.00
35435;BME280;21556;55.782;37.528;2023-03-31T13:01:12;98552.34;;;6.03;100.00
35435;BME280;21556;55.782;37.528;2023-03-31T13:03:47;98544.38;;;5.94;100.00
35435;BME280;21556;55.782;37.528;2023-03-31T13:08:59;98534.34;;;6.17;100.00
35435;BME280;21556;55.782;37.528;2023-03-31T13:14:04;98534.59;;;5.81;100.00
35435;BME280;21556;55.782;37.528;2023-03-31T13:16:35;98532.75;;;5.74;100.00
35435;BME280;21556;55.782;37.528;2023-03-31T13:19:02;98540.78;;;5.39;100.00
35435;BME280;21556;55.782;37.528;2023-03-31T13:21:30;98539.13;;;5.44;100.00
35435;BME280;21556;55.782;37.528;2023-03-31T13:24:00;98528.13;;;5.59;100.00
35435;BME280;21556;55.782;37.528;2023-03-31T13:34:28;98531.53;;;5.55;100.00
35435;BME280;21556;55.782;37.528;2023-03-31T13:39:35;98535.19;;;5.18;100.00
35435;BME280;21556;55.782;37.528;2023-03-31T13:52:09;98521.63;;;5.34;100.00
35435;BME280;21556;55.782;37.528;2023-03-31T14:07:39;98517.13;;;5.25;100.00
35435;BME280;21556;55.782;37.528;2023-03-31T14:13:02;98506.56;;;5.18;100.00
35435;BME280;21556;55.782;37.528;2023-03-31T14:15:28;98506.50;;;5.13;100.00
35435;BME280;21556;55.782;37.528;2023-03-31T14:17:54;98507.59;;;4.82;100.00
35435;BME280;21556;55.782;37.528;2023-03-31T14:27:53;98494.50;;;5.21;100.00
35435;BME280;21556;55.782;37.528;2023-03-31T14:30:39;98498.66;;;5.12;100.00
35435;BME280;21556;55.782;37.528;2023-03-31T14:35:37;98485.56;;;5.05;100.00
35435;BME280;21556;55.782;37.528;2023-03-31T14:38:17;98477.31;;;5.28;100.00
35435;BME280;21556;55.782;37.528;2023-03-31T14:40:47;98481.59;;;5.26;100.00
35435;BME280;21556;55.782;37.528;2023-03-31T14:43:18;98480.91;;;5.35;100.00
35435;BME280;21556;55.782;37.528;2023-03-31T14:45:44;98474.06;;;5.41;100.00
35435;BME280;21556;55.782;37.528;2023-03-31T14:48:11;98485.63;;;5.10;100.00
35435;BME280;21556;55.782;37.528;2023-03-31T14:50:40;98489.28;;;5.20;100.00
35435;BME280;21556;55.782;37.528;2023-03-31T14:53:12;98479.63;;;5.13;100.00
35435;BME280;21556;55.782;37.528;2023-03-31T14:55:39;98478.38;;;5.41;100.00
35435;BME280;21556;55.782;37.528;2023-03-31T14:58:05;98483.56;;;5.38;100.00
35435;BME280;21556;55.782;37.528;2023-03-31T15:00:34;98488.94;;;5.01;100.00
35435;BME280;21556;55.782;37.528;2023-03-31T15:03:00;98490.63;;;4.99;100.00
35435;BME280;21556;55.782;37.528;2023-03-31T15:05:31;98480.84;;;5.33;100.00
35435;BME280;21556;55.782;37.528;2023-03-31T15:07:59;98479.41;;;5.50;100.00
35435;BME280;21556;55.782;37.528;2023-03-31T15:10:29;98487.59;;;5.22;100.00
35435;BME280;21556;55.782;37.528;2023-03-31T15:12:56;98490.09;;;5.17;100.00
35435;BME280;21556;55.782;37.528;2023-03-31T15:15:22;98486.38;;;5.03;100.00
35435;BME280;21556;55.782;37.528;2023-03-31T15:17:47;98485.78;;;5.18;100.00
35435;BME280;21556;55.782;37.528;2023-03-31T15:20:28;98491.78;;;5.14;100.00
35435;BME280;21556;55.782;37.528;2023-03-31T15:22:54;98493.44;;;5.12;100.00
35435;BME280;21556;55.782;37.528;2023-03-31T15:25:28;98492.09;;;5.30;100.00
35435;BME280;21556;55.782;37.528;2023-03-31T15:27:59;98491.03;;;5.21;100.00
35435;BME280;21556;55.782;37.528;2023-03-31T15:30:26;98491.13;;;5.25;100.00
35435;BME280;21556;55.782;37.528;2023-03-31T15:32:53;98493.41;;;5.09;100.00
35435;BME280;21556;55.782;37.528;2023-03-31T15:35:26;98490.75;;;5.05;100.00
35435;BME280;21556;55.782;37.528;2023-03-31T15:37:56;98495.81;;;4.99;100.00
35435;BME280;21556;55.782;37.528;2023-03-31T15:42:49;98487.50;;;5.16;100.00